createdAt,value
2018-08-17T00:00:49.281Z,15.98
2018-08-17T00:01:52.715Z,15.32
2018-08-17T00:02:56.147Z,15.83
2018-08-17T00:03:59.644Z,15.90
2018-08-17T00:05:03.406Z,16.30
2018-08-17T00:06:07.016Z,15.25
2018-08-17T00:07:10.518Z,16.02
2018-08-17T00:08:14.322Z,16.48
2018-08-17T00:09:17.797Z,16.75
2018-08-17T00:10:21.452Z,15.75
2018-08-17T00:11:24.875Z,15.90
2018-08-17T00:12:28.418Z,15.53
2018-08-17T00:13:32.191Z,16.25
2018-08-17T00:14:35.796Z,16.42
2018-08-17T00:15:39.231Z,15.85
2018-08-17T00:16:42.668Z,16.87
2018-08-17T00:17:46.076Z,17.10
2018-08-17T00:18:49.595Z,17.98
2018-08-17T00:19:53.083Z,16.65
2018-08-17T00:20:56.524Z,16.80
2018-08-17T00:21:59.983Z,17.98
2018-08-17T00:23:03.687Z,16.85
2018-08-17T00:24:07.579Z,16.85
2018-08-17T00:25:11.006Z,16.05
2018-08-17T00:26:14.496Z,16.77
2018-08-17T00:27:18.117Z,16.77
2018-08-17T00:28:21.915Z,16.55
2018-08-17T00:29:25.696Z,16.40
2018-08-17T00:30:32.165Z,16.95
2018-08-17T00:31:35.776Z,16.67
2018-08-17T00:32:39.174Z,17.10
2018-08-17T00:33:50.079Z,17.07
2018-08-17T00:34:53.683Z,15.98
2018-08-17T00:35:57.154Z,16.52
2018-08-17T00:37:00.537Z,17.35
2018-08-17T00:38:04.302Z,16.82
2018-08-17T00:39:09.417Z,16.70
2018-08-17T00:40:12.938Z,16.60
2018-08-17T00:41:16.747Z,16.73
2018-08-17T00:42:20.162Z,17.23
2018-08-17T00:43:23.613Z,16.45
2018-08-17T00:44:26.995Z,16.70
2018-08-17T00:45:30.583Z,17.55
2018-08-17T00:46:34.264Z,16.62
2018-08-17T00:47:37.838Z,17.35
2018-08-17T00:48:41.479Z,17.67
2018-08-17T00:49:44.893Z,17.62
2018-08-17T00:50:48.326Z,18.15
2018-08-17T00:51:51.828Z,17.20
2018-08-17T00:52:55.584Z,17.17
2018-08-17T00:53:58.992Z,16.95
2018-08-17T00:55:02.475Z,18.05
2018-08-17T00:56:06.347Z,17.12
2018-08-17T00:57:09.893Z,17.60
2018-08-17T00:58:13.576Z,19.32
2018-08-17T00:59:16.940Z,18.55
2018-08-17T01:00:20.506Z,19.83
2018-08-17T01:01:23.942Z,18.20
2018-08-17T01:02:27.585Z,17.07
2018-08-17T01:03:31.135Z,19.10
2018-08-17T01:04:34.572Z,18.43
2018-08-17T01:05:38.217Z,18.53
2018-08-17T01:06:41.586Z,18.65
2018-08-17T01:07:45.142Z,19.62
2018-08-17T01:08:48.538Z,20.20
2018-08-17T01:09:52.062Z,20.23
2018-08-17T01:10:55.583Z,20.82
2018-08-17T01:11:59.011Z,21.20
2018-08-17T01:13:02.703Z,20.23
2018-08-17T01:14:06.347Z,19.70
2018-08-17T01:15:09.928Z,20.80
2018-08-17T01:16:13.300Z,21.10
2018-08-17T01:17:16.783Z,19.87
2018-08-17T01:18:20.471Z,20.23
2018-08-17T01:19:24.143Z,21.07
2018-08-17T01:20:27.577Z,18.93
2018-08-17T01:21:30.992Z,19.67
2018-08-17T01:22:34.388Z,19.27
2018-08-17T01:23:37.938Z,18.20
2018-08-17T01:24:41.501Z,20.10
2018-08-17T01:25:44.916Z,18.63
2018-08-17T01:26:48.957Z,19.30
2018-08-17T01:27:52.544Z,18.93
2018-08-17T01:28:55.924Z,19.17
2018-08-17T01:29:59.337Z,19.47
2018-08-17T01:31:02.850Z,20.40
2018-08-17T01:32:06.296Z,19.75
2018-08-17T01:33:09.857Z,20.17
2018-08-17T01:34:13.494Z,18.87
2018-08-17T01:35:17.057Z,20.20
2018-08-17T01:36:20.649Z,19.07
2018-08-17T01:37:24.359Z,20.77
2018-08-17T01:38:27.736Z,20.43
2018-08-17T01:39:31.280Z,20.75
2018-08-17T01:40:34.883Z,19.10
2018-08-17T01:41:38.839Z,20.10
2018-08-17T01:42:42.254Z,19.60
2018-08-17T01:43:45.808Z,18.93
2018-08-17T01:44:49.273Z,19.20
2018-08-17T01:45:52.996Z,19.00
2018-08-17T01:46:56.567Z,20.00
2018-08-17T01:48:00.248Z,18.97
2018-08-17T01:49:03.851Z,17.93
2018-08-17T01:50:07.358Z,19.98
2018-08-17T01:51:10.985Z,20.27
2018-08-17T01:52:14.779Z,19.60
2018-08-17T01:53:18.699Z,19.73
2018-08-17T01:54:22.359Z,19.57
2018-08-17T01:55:26.436Z,20.87
2018-08-17T01:56:30.238Z,18.40
2018-08-17T01:57:33.851Z,20.00
2018-08-17T01:58:37.760Z,18.60
2018-08-17T01:59:41.512Z,19.53
2018-08-17T02:00:45.004Z,18.23
2018-08-17T02:01:48.347Z,20.20
2018-08-17T02:02:51.742Z,19.27
2018-08-17T02:03:55.328Z,19.60
2018-08-17T02:04:58.894Z,19.60
2018-08-17T02:06:02.337Z,21.90
2018-08-17T02:07:05.948Z,19.93
2018-08-17T02:08:09.352Z,20.07
2018-08-17T02:09:14.152Z,20.60
2018-08-17T02:10:17.813Z,20.83
2018-08-17T02:11:21.279Z,21.90
2018-08-17T02:12:25.012Z,21.67
2018-08-17T02:13:28.411Z,21.17
2018-08-17T02:14:31.829Z,19.97
2018-08-17T02:15:35.585Z,21.20
2018-08-17T02:16:39.624Z,21.13
2018-08-17T02:17:43.341Z,21.17
2018-08-17T02:18:46.729Z,20.03
2018-08-17T02:19:50.223Z,20.50
2018-08-17T02:20:53.832Z,20.50
2018-08-17T02:21:57.435Z,21.40
2018-08-17T02:23:01.042Z,21.60
2018-08-17T02:24:04.624Z,21.10
2018-08-17T02:25:08.735Z,21.83
2018-08-17T02:26:12.378Z,20.30
2018-08-17T02:27:16.055Z,20.23
2018-08-17T02:28:19.759Z,20.40
2018-08-17T02:29:23.529Z,20.40
2018-08-17T02:30:27.002Z,19.80
2018-08-17T02:31:30.433Z,22.20
2018-08-17T02:32:34.116Z,20.20
2018-08-17T02:33:37.708Z,20.93
2018-08-17T02:34:41.537Z,20.60
2018-08-17T02:35:45.110Z,19.43
2018-08-17T02:36:48.525Z,21.17
2018-08-17T02:37:52.012Z,21.80
2018-08-17T02:38:55.711Z,19.97
2018-08-17T02:39:59.289Z,21.07
2018-08-17T02:41:02.906Z,19.53
2018-08-17T02:42:06.796Z,19.47
2018-08-17T02:43:10.216Z,19.43
2018-08-17T02:44:13.941Z,19.33
2018-08-17T02:45:17.865Z,20.03
2018-08-17T02:46:21.535Z,21.13
2018-08-17T02:47:25.238Z,20.87
2018-08-17T02:48:28.664Z,20.70
2018-08-17T02:49:32.081Z,19.80
2018-08-17T02:50:35.743Z,20.23
2018-08-17T02:51:39.738Z,20.27
2018-08-17T02:52:43.353Z,19.87
2018-08-17T02:53:46.881Z,20.67
2018-08-17T02:54:50.199Z,19.60
2018-08-17T02:55:53.629Z,19.07
2018-08-17T02:56:57.167Z,20.27
2018-08-17T02:58:00.670Z,21.23
2018-08-17T02:59:04.241Z,20.57
2018-08-17T03:00:07.832Z,21.13
2018-08-17T03:01:11.597Z,18.60
2018-08-17T03:02:15.128Z,20.47
2018-08-17T03:03:18.833Z,21.23
2018-08-17T03:04:22.578Z,19.90
2018-08-17T03:05:26.215Z,20.80
2018-08-17T03:06:29.611Z,19.07
2018-08-17T03:07:33.193Z,20.33
2018-08-17T03:08:36.813Z,21.60
2018-08-17T03:09:41.334Z,20.03
2018-08-17T03:10:44.791Z,20.17
2018-08-17T03:11:48.276Z,22.67
2018-08-17T03:12:51.935Z,20.80
2018-08-17T03:13:55.510Z,20.02
2018-08-17T03:14:59.137Z,19.60
2018-08-17T03:16:02.632Z,20.17
2018-08-17T03:17:06.279Z,20.10
2018-08-17T03:18:09.625Z,19.83
2018-08-17T03:19:13.136Z,20.13
2018-08-17T03:20:16.765Z,19.93
2018-08-17T03:21:20.442Z,20.93
2018-08-17T03:22:24.030Z,19.67
2018-08-17T03:23:27.737Z,19.80
2018-08-17T03:24:31.280Z,22.00
2018-08-17T03:25:34.718Z,21.53
2018-08-17T03:26:38.129Z,20.73
2018-08-17T03:27:41.767Z,22.17
2018-08-17T03:28:45.797Z,22.47
2018-08-17T03:29:49.384Z,22.13
2018-08-17T03:30:52.973Z,21.40
2018-08-17T03:31:56.548Z,21.53
2018-08-17T03:33:00.318Z,21.43
2018-08-17T03:34:03.813Z,22.00
2018-08-17T03:35:07.267Z,20.97
2018-08-17T03:36:10.682Z,20.37
2018-08-17T03:37:14.196Z,20.73
2018-08-17T03:38:18.010Z,20.80
2018-08-17T03:39:21.495Z,23.10
2018-08-17T03:40:25.092Z,23.20
2018-08-17T03:41:28.608Z,21.57
2018-08-17T03:42:32.220Z,24.00
2018-08-17T03:43:35.715Z,23.10
2018-08-17T03:44:39.149Z,23.20
2018-08-17T03:45:42.971Z,23.93
2018-08-17T03:46:47.507Z,23.37
2018-08-17T03:47:51.415Z,23.33
2018-08-17T03:48:55.501Z,26.43
2018-08-17T03:49:59.009Z,24.90
2018-08-17T03:51:02.484Z,25.33
2018-08-17T03:52:05.990Z,24.33
2018-08-17T03:53:09.506Z,24.40
2018-08-17T03:54:13.724Z,23.17
2018-08-17T03:55:17.367Z,22.47
2018-08-17T03:56:20.896Z,23.00
2018-08-17T03:57:24.287Z,25.07
2018-08-17T03:58:27.749Z,24.70
2018-08-17T03:59:31.419Z,24.83
2018-08-17T04:00:34.926Z,23.77
2018-08-17T04:01:38.808Z,24.97
2018-08-17T04:02:42.139Z,24.30
2018-08-17T04:03:45.817Z,27.40
2018-08-17T04:04:49.187Z,25.73
2018-08-17T04:05:52.797Z,25.53
2018-08-17T04:06:56.201Z,25.33
2018-08-17T04:07:59.561Z,27.03
2018-08-17T04:09:04.576Z,24.27
2018-08-17T04:10:08.285Z,21.20
2018-08-17T04:11:11.793Z,22.87
2018-08-17T04:12:15.435Z,21.00
2018-08-17T04:13:19.153Z,20.87
2018-08-17T04:14:22.620Z,23.00
2018-08-17T04:15:26.361Z,23.27
2018-08-17T04:16:30.113Z,22.63
2018-08-17T04:17:33.813Z,23.43
2018-08-17T04:18:37.210Z,23.93
2018-08-17T04:19:40.615Z,23.10
2018-08-17T04:20:44.214Z,23.40
2018-08-17T04:21:47.755Z,22.40
2018-08-17T04:22:51.355Z,21.87
2018-08-17T04:23:55.031Z,21.27
2018-08-17T04:24:58.471Z,21.83
2018-08-17T04:26:02.073Z,22.77
2018-08-17T04:27:05.652Z,22.87
2018-08-17T04:28:10.117Z,20.30
2018-08-17T04:29:13.642Z,18.90
2018-08-17T04:30:17.688Z,19.30
2018-08-17T04:31:21.523Z,19.30
2018-08-17T04:32:25.010Z,18.97
2018-08-17T04:33:28.455Z,19.23
2018-08-17T04:34:31.977Z,18.57
2018-08-17T04:35:35.515Z,21.00
2018-08-17T04:36:38.999Z,21.57
2018-08-17T04:37:42.409Z,20.90
2018-08-17T04:38:47.053Z,21.13
2018-08-17T04:39:50.691Z,19.97
2018-08-17T04:40:54.575Z,21.50
2018-08-17T04:41:57.955Z,18.53
2018-08-17T04:43:01.465Z,19.80
2018-08-17T04:44:05.075Z,19.13
2018-08-17T04:45:09.160Z,20.07
2018-08-17T04:46:12.864Z,21.13
2018-08-17T04:47:16.620Z,21.60
2018-08-17T04:48:20.174Z,20.53
2018-08-17T04:49:24.106Z,19.73
2018-08-17T04:50:27.889Z,18.67
2018-08-17T04:51:31.451Z,21.77
2018-08-17T04:52:35.193Z,21.43
2018-08-17T04:53:38.826Z,21.17
2018-08-17T04:54:42.291Z,18.80
2018-08-17T04:55:45.670Z,19.47
2018-08-17T04:56:49.137Z,19.83
2018-08-17T04:57:52.784Z,20.37
2018-08-17T04:58:56.165Z,20.80
2018-08-17T04:59:59.570Z,20.73
2018-08-17T05:01:03.258Z,22.03
2018-08-17T05:02:06.934Z,19.87
2018-08-17T05:03:10.635Z,20.47
2018-08-17T05:04:14.033Z,19.50
2018-08-17T05:05:17.646Z,20.47
2018-08-17T05:06:21.244Z,20.80
2018-08-17T05:07:25.149Z,21.10
2018-08-17T05:08:28.812Z,18.37
2018-08-17T05:09:32.455Z,19.87
2018-08-17T05:10:35.891Z,18.53
2018-08-17T05:11:39.348Z,20.63
2018-08-17T05:12:42.788Z,21.50
2018-08-17T05:13:46.500Z,21.27
2018-08-17T05:14:49.903Z,20.83
2018-08-17T05:15:53.333Z,20.93
2018-08-17T05:16:56.851Z,22.43
2018-08-17T05:18:00.491Z,22.90
2018-08-17T05:19:04.262Z,21.47
2018-08-17T05:20:07.774Z,22.20
2018-08-17T05:21:11.265Z,20.33
2018-08-17T05:22:14.990Z,21.00
2018-08-17T05:23:18.513Z,21.42
2018-08-17T05:24:22.084Z,21.40
2018-08-17T05:25:25.575Z,19.67
2018-08-17T05:26:29.096Z,24.40
2018-08-17T05:27:33.020Z,21.23
2018-08-17T05:28:36.744Z,19.60
2018-08-17T05:29:40.373Z,21.77
2018-08-17T05:30:44.286Z,22.47
2018-08-17T05:31:48.224Z,22.20
2018-08-17T05:32:52.368Z,23.27
2018-08-17T05:33:56.400Z,21.70
2018-08-17T05:34:59.991Z,21.10
2018-08-17T05:36:03.957Z,22.25
2018-08-17T05:37:07.839Z,23.47
2018-08-17T05:38:11.536Z,21.87
2018-08-17T05:39:14.961Z,23.77
2018-08-17T05:40:18.493Z,23.90
2018-08-17T05:41:22.115Z,23.30
2018-08-17T05:42:25.983Z,24.23
2018-08-17T05:43:29.656Z,24.20
2018-08-17T05:44:33.097Z,24.90
2018-08-17T05:45:36.476Z,25.70
2018-08-17T05:46:40.172Z,24.80
2018-08-17T05:47:43.911Z,24.97
2018-08-17T05:48:47.567Z,24.80
2018-08-17T05:49:50.939Z,23.83
2018-08-17T05:50:54.459Z,24.15
2018-08-17T05:51:58.095Z,26.47
2018-08-17T05:53:02.624Z,25.70
2018-08-17T05:54:07.032Z,23.80
2018-08-17T05:55:10.535Z,25.47
2018-08-17T05:56:13.926Z,23.67
2018-08-17T05:57:17.379Z,24.05
2018-08-17T05:58:21.104Z,24.20
2018-08-17T05:59:24.756Z,24.17
2018-08-17T06:00:28.223Z,24.50
2018-08-17T06:01:32.250Z,24.18
2018-08-17T06:02:36.015Z,25.47
2018-08-17T06:03:39.699Z,25.70
2018-08-17T06:04:43.388Z,24.57
2018-08-17T06:05:47.057Z,24.43
2018-08-17T06:06:50.830Z,26.87
2018-08-17T06:07:54.399Z,21.63
2018-08-17T06:08:57.996Z,23.57
2018-08-17T06:10:01.969Z,25.87
2018-08-17T06:11:05.923Z,25.92
2018-08-17T06:12:09.561Z,27.17
2018-08-17T06:13:12.910Z,26.20
2018-08-17T06:14:16.383Z,24.60
2018-08-17T06:15:19.989Z,24.67
2018-08-17T06:16:23.440Z,23.53
2018-08-17T06:17:27.011Z,21.83
2018-08-17T06:18:30.535Z,25.90
2018-08-17T06:19:33.918Z,25.55
2018-08-17T06:20:37.730Z,24.30
2018-08-17T06:21:41.731Z,26.10
2018-08-17T06:22:45.255Z,25.70
2018-08-17T06:23:48.864Z,25.37
2018-08-17T06:24:52.540Z,23.83
2018-08-17T06:25:56.249Z,21.43
2018-08-17T06:26:59.809Z,22.05
2018-08-17T06:28:03.322Z,23.35
2018-08-17T06:29:07.011Z,23.00
2018-08-17T06:30:13.681Z,22.03
2018-08-17T06:31:18.156Z,23.10
2018-08-17T06:32:23.170Z,22.52
2018-08-17T06:33:28.346Z,23.20
2018-08-17T06:34:33.305Z,23.73
2018-08-17T06:35:38.139Z,23.25
2018-08-17T06:36:43.216Z,22.40
2018-08-17T06:37:48.672Z,21.03
2018-08-17T06:38:53.715Z,21.87
2018-08-17T06:39:59.316Z,22.70
2018-08-17T06:41:03.881Z,22.30
2018-08-17T06:42:07.538Z,21.20
2018-08-17T06:43:11.125Z,21.30
2018-08-17T06:44:14.725Z,21.85
2018-08-17T06:45:18.314Z,19.73
2018-08-17T06:46:21.847Z,19.70
2018-08-17T06:47:25.540Z,20.12
2018-08-17T06:48:29.240Z,19.30
2018-08-17T06:49:33.162Z,20.12
2018-08-17T06:50:36.799Z,19.15
2018-08-17T06:51:40.548Z,20.02
2018-08-17T06:52:44.490Z,16.62
2018-08-17T06:53:48.547Z,18.57
2018-08-17T06:54:52.291Z,16.32
2018-08-17T06:55:56.054Z,16.35
2018-08-17T06:56:59.614Z,15.93
2018-08-17T06:58:06.712Z,16.70
2018-08-17T06:59:12.283Z,15.23
2018-08-17T07:00:17.982Z,14.83
2018-08-17T07:01:21.853Z,15.05
2018-08-17T07:02:25.789Z,13.85
2018-08-17T07:03:29.532Z,14.73
2018-08-17T07:04:33.219Z,13.60
2018-08-17T07:05:36.833Z,12.25
2018-08-17T07:06:40.625Z,14.43
2018-08-17T07:07:44.322Z,13.95
2018-08-17T07:08:47.937Z,14.73
2018-08-17T07:09:51.245Z,14.00
2018-08-17T07:10:54.697Z,13.55
2018-08-17T07:11:58.161Z,13.35
2018-08-17T07:13:01.965Z,13.38
2018-08-17T07:14:06.147Z,13.53
2018-08-17T07:15:10.158Z,13.22
2018-08-17T07:16:13.592Z,12.65
2018-08-17T07:17:17.274Z,13.03
2018-08-17T07:18:21.051Z,11.35
2018-08-17T07:19:25.047Z,13.32
2018-08-17T07:20:28.755Z,9.18
2018-08-17T07:21:32.573Z,10.93
2018-08-17T07:22:36.162Z,12.58
2018-08-17T07:23:39.807Z,13.18
2018-08-17T07:24:43.323Z,12.05
2018-08-17T07:25:46.872Z,11.18
2018-08-17T07:26:50.316Z,12.15
2018-08-17T07:27:54.054Z,11.55
2018-08-17T07:28:58.120Z,12.45
2018-08-17T07:30:02.092Z,12.25
2018-08-17T07:31:05.943Z,9.10
2018-08-17T07:32:09.709Z,10.78
2018-08-17T07:33:13.194Z,10.10
2018-08-17T07:34:16.611Z,10.45
2018-08-17T07:35:20.580Z,9.35
2018-08-17T07:36:24.178Z,9.10
2018-08-17T07:37:27.799Z,9.20
2018-08-17T07:38:31.393Z,9.35
2018-08-17T07:39:34.978Z,9.38
2018-08-17T07:40:38.689Z,8.55
2018-08-17T07:41:44.021Z,10.75
2018-08-17T07:42:47.729Z,9.50
2018-08-17T07:43:51.487Z,8.80
2018-08-17T07:44:54.877Z,9.43
2018-08-17T07:45:58.452Z,8.48
2018-08-17T07:47:02.001Z,9.30
2018-08-17T07:48:05.652Z,7.65
2018-08-17T07:49:09.456Z,9.50
2018-08-17T07:50:15.977Z,9.15
2018-08-17T07:51:19.454Z,8.10
2018-08-17T07:52:23.098Z,7.80
2018-08-17T07:53:26.487Z,7.78
2018-08-17T07:54:30.612Z,6.45
2018-08-17T07:55:34.188Z,6.35
2018-08-17T07:56:37.720Z,5.85
2018-08-17T07:57:41.337Z,5.42
2018-08-17T07:58:44.749Z,6.17
2018-08-17T07:59:48.357Z,5.15
2018-08-17T08:00:53.641Z,4.95
2018-08-17T08:01:58.505Z,5.15
2018-08-17T08:03:03.120Z,5.58
2018-08-17T08:04:07.265Z,5.20
2018-08-17T08:06:12.383Z,4.83
2018-08-17T08:07:15.826Z,4.65
2018-08-17T08:08:19.351Z,4.78
2018-08-17T08:09:22.727Z,4.80
2018-08-17T08:10:26.259Z,4.55
2018-08-17T08:11:29.737Z,3.37
2018-08-17T08:12:33.430Z,3.10
2018-08-17T08:13:37.301Z,3.40
2018-08-17T08:14:40.973Z,3.42
2018-08-17T08:15:44.392Z,3.65
2018-08-17T08:16:48.390Z,3.15
2018-08-17T08:17:52.130Z,3.65
2018-08-17T08:18:55.758Z,3.00
2018-08-17T08:20:16.401Z,2.77
2018-08-17T08:21:19.755Z,2.50
2018-08-17T08:22:23.572Z,3.08
2018-08-17T08:23:28.714Z,2.75
2018-08-17T08:24:38.290Z,3.08
2018-08-17T08:25:42.210Z,3.00
2018-08-17T08:26:46.023Z,2.65
2018-08-17T08:27:49.704Z,2.80
2018-08-17T08:28:53.881Z,2.85
2018-08-17T08:29:57.248Z,3.37
2018-08-17T08:31:00.687Z,3.02
2018-08-17T08:32:04.455Z,2.90
2018-08-17T08:33:09.930Z,3.17
2018-08-17T08:34:13.925Z,2.52
2018-08-17T08:35:17.469Z,3.08
2018-08-17T08:36:20.846Z,2.90
2018-08-17T08:37:24.335Z,3.30
2018-08-17T08:38:27.898Z,3.10
2018-08-17T08:39:31.540Z,3.02
2018-08-17T08:40:34.975Z,3.10
2018-08-17T08:41:38.449Z,3.30
2018-08-17T08:42:42.106Z,3.05
2018-08-17T08:43:45.789Z,3.00
2018-08-17T08:44:49.195Z,3.27
2018-08-17T08:45:52.749Z,2.83
2018-08-17T08:46:56.169Z,2.98
2018-08-17T08:48:00.126Z,2.98
2018-08-17T08:49:04.602Z,3.30
2018-08-17T08:50:09.137Z,3.00
2018-08-17T08:51:12.554Z,3.37
2018-08-17T08:52:15.959Z,3.05
2018-08-17T08:53:19.466Z,3.22
2018-08-17T08:54:22.926Z,2.95
2018-08-17T08:55:26.610Z,3.20
2018-08-17T08:56:30.161Z,2.77
2018-08-17T08:57:33.675Z,2.77
2018-08-17T08:58:37.133Z,3.08
2018-08-17T08:59:40.668Z,2.80
2018-08-17T09:00:44.765Z,2.75
2018-08-17T09:01:48.565Z,2.70
2018-08-17T09:02:51.887Z,2.62
2018-08-17T09:03:55.361Z,2.60
2018-08-17T09:04:58.959Z,3.37
2018-08-17T09:06:02.672Z,3.40
2018-08-17T09:07:06.217Z,2.95
2018-08-17T09:08:09.740Z,3.65
2018-08-17T09:09:13.243Z,3.60
2018-08-17T09:10:16.837Z,3.55
2018-08-17T09:11:20.374Z,3.27
2018-08-17T09:12:24.097Z,3.80
2018-08-17T09:13:27.576Z,3.67
2018-08-17T09:14:31.015Z,3.20
2018-08-17T09:15:34.621Z,3.20
2018-08-17T09:16:38.285Z,3.05
2018-08-17T09:17:42.897Z,3.02
2018-08-17T09:18:46.449Z,3.00
2018-08-17T09:19:49.932Z,3.15
2018-08-17T09:20:53.556Z,2.70
2018-08-17T09:21:57.821Z,2.80
2018-08-17T09:23:01.267Z,2.50
2018-08-17T09:24:04.693Z,2.70
2018-08-17T09:25:08.354Z,2.52
2018-08-17T09:26:11.763Z,2.33
2018-08-17T09:27:15.481Z,2.60
2018-08-17T09:28:19.195Z,2.72
2018-08-17T09:29:22.896Z,2.80
2018-08-17T09:30:26.381Z,2.58
2018-08-17T09:31:29.953Z,2.55
2018-08-17T09:32:33.449Z,2.80
2018-08-17T09:33:37.334Z,2.52
2018-08-17T09:34:40.832Z,3.00
2018-08-17T09:35:44.304Z,2.60
2018-08-17T09:36:47.770Z,2.90
2018-08-17T09:37:51.437Z,2.50
2018-08-17T09:38:54.825Z,2.80
2018-08-17T09:39:58.274Z,2.70
2018-08-17T09:41:01.955Z,2.45
2018-08-17T09:42:06.032Z,2.90
2018-08-17T09:43:16.497Z,3.12
2018-08-17T09:44:19.906Z,3.55
2018-08-17T09:45:23.271Z,2.75
2018-08-17T09:46:26.756Z,3.27
2018-08-17T09:47:30.440Z,3.90
2018-08-17T09:48:33.907Z,4.08
2018-08-17T09:49:37.383Z,3.90
2018-08-17T09:50:40.808Z,3.62
2018-08-17T09:51:44.452Z,3.60
2018-08-17T09:52:48.072Z,3.65
2018-08-17T09:53:51.490Z,3.50
2018-08-17T09:54:54.901Z,4.08
2018-08-17T09:55:58.599Z,3.70
2018-08-17T09:57:02.221Z,3.52
2018-08-17T09:58:05.997Z,3.87
2018-08-17T09:59:09.638Z,3.80
2018-08-17T10:00:13.413Z,3.87
2018-08-17T10:01:22.839Z,4.33
2018-08-17T10:02:32.244Z,4.37
2018-08-17T10:03:41.199Z,4.60
2018-08-17T10:05:48.217Z,3.98
2018-08-17T10:06:57.650Z,4.25
2018-08-17T10:08:07.388Z,4.83
2018-08-17T10:09:19.220Z,4.25
2018-08-17T10:10:24.240Z,4.40
2018-08-17T10:11:28.280Z,4.25
2018-08-17T10:12:31.857Z,4.55
2018-08-17T10:13:35.410Z,5.00
2018-08-17T10:14:39.315Z,4.60
2018-08-17T10:15:43.095Z,4.30
2018-08-17T10:16:46.816Z,4.78
2018-08-17T10:17:50.360Z,5.10
2018-08-17T10:18:54.173Z,5.20
2018-08-17T10:19:57.883Z,4.25
2018-08-17T10:21:01.633Z,4.33
2018-08-17T10:22:05.330Z,4.25
2018-08-17T10:23:14.263Z,3.70
2018-08-17T10:24:18.227Z,4.22
2018-08-17T10:25:23.720Z,4.25
2018-08-17T10:26:27.114Z,3.77
2018-08-17T10:27:30.801Z,3.85
2018-08-17T10:28:34.821Z,4.47
2018-08-17T10:29:39.739Z,4.45
2018-08-17T10:30:43.493Z,4.20
2018-08-17T10:31:47.621Z,4.03
2018-08-17T10:32:55.432Z,3.87
2018-08-17T10:33:59.092Z,4.58
2018-08-17T10:35:04.067Z,4.30
2018-08-17T10:36:07.757Z,4.28
2018-08-17T10:37:11.315Z,4.65
2018-08-17T10:38:14.743Z,4.22
2018-08-17T10:39:18.588Z,4.35
2018-08-17T10:40:22.392Z,3.85
2018-08-17T10:41:26.118Z,3.60
2018-08-17T10:42:29.538Z,4.60
2018-08-17T10:43:33.140Z,4.33
2018-08-17T10:44:36.739Z,3.70
2018-08-17T10:45:40.423Z,4.53
2018-08-17T10:46:43.806Z,4.50
2018-08-17T10:47:47.837Z,4.28
2018-08-17T10:48:51.546Z,4.40
2018-08-17T10:49:55.468Z,4.37
2018-08-17T10:50:58.936Z,4.30
2018-08-17T10:52:02.319Z,4.35
2018-08-17T10:53:05.884Z,3.80
2018-08-17T10:54:09.614Z,4.47
2018-08-17T10:55:13.657Z,4.53
2018-08-17T10:56:17.454Z,4.05
2018-08-17T10:57:21.309Z,4.03
2018-08-17T10:58:24.844Z,4.40
2018-08-17T10:59:28.474Z,4.12
2018-08-17T11:00:32.051Z,4.30
2018-08-17T11:01:35.819Z,4.47
2018-08-17T11:02:39.455Z,4.08
2018-08-17T11:03:42.824Z,3.65
2018-08-17T11:04:47.784Z,3.52
2018-08-17T11:05:51.337Z,3.67
2018-08-17T11:06:54.844Z,3.72
2018-08-17T11:07:58.383Z,3.60
2018-08-17T11:09:02.002Z,3.52
2018-08-17T11:10:07.313Z,3.12
2018-08-17T11:11:10.692Z,3.15
2018-08-17T11:12:14.331Z,3.10
2018-08-17T11:13:17.955Z,3.47
2018-08-17T11:14:21.321Z,3.20
2018-08-17T11:15:24.950Z,3.58
2018-08-17T11:16:28.467Z,3.35
2018-08-17T11:17:32.303Z,3.47
2018-08-17T11:18:35.877Z,3.42
2018-08-17T11:19:39.322Z,3.65
2018-08-17T11:20:42.730Z,4.20
2018-08-17T11:21:46.433Z,4.08
2018-08-17T11:22:50.325Z,4.00
2018-08-17T11:24:01.900Z,4.12
2018-08-17T11:25:07.024Z,4.37
2018-08-17T11:26:10.787Z,4.40
2018-08-17T11:27:14.253Z,4.63
2018-08-17T11:28:17.759Z,4.60
2018-08-17T11:29:21.318Z,4.40
2018-08-17T11:30:25.117Z,4.05
2018-08-17T11:32:41.896Z,4.17
2018-08-17T11:33:45.490Z,4.53
2018-08-17T11:34:53.208Z,4.00
2018-08-17T11:35:57.125Z,4.20
2018-08-17T11:37:00.593Z,4.03
2018-08-17T11:38:04.573Z,4.10
2018-08-17T11:39:08.860Z,4.22
2018-08-17T11:40:13.025Z,4.08
2018-08-17T11:41:16.378Z,4.80
2018-08-17T11:42:19.773Z,5.17
2018-08-17T11:43:23.344Z,4.97
2018-08-17T11:44:27.105Z,4.80
2018-08-17T11:45:30.450Z,4.92
2018-08-17T11:46:33.823Z,4.92
2018-08-17T11:47:38.703Z,4.50
2018-08-17T11:48:42.168Z,4.97
2018-08-17T11:49:45.821Z,4.80
2018-08-17T11:50:49.681Z,5.00
2018-08-17T11:51:53.068Z,5.30
2018-08-17T11:52:59.083Z,4.92
2018-08-17T11:54:02.915Z,4.50
2018-08-17T11:55:06.802Z,4.03
2018-08-17T11:56:10.412Z,4.80
2018-08-17T11:57:14.351Z,4.55
2018-08-17T11:58:17.791Z,4.47
2018-08-17T11:59:21.229Z,4.50
2018-08-17T12:00:25.894Z,3.20
2018-08-17T12:01:29.486Z,4.25
2018-08-17T12:02:33.181Z,4.33
2018-08-17T12:03:36.940Z,4.45
2018-08-17T12:04:42.552Z,4.80
2018-08-17T12:05:46.011Z,5.05
2018-08-17T12:06:49.625Z,4.45
2018-08-17T12:07:53.115Z,4.70
2018-08-17T12:08:56.738Z,4.10
2018-08-17T12:10:04.290Z,3.92
2018-08-17T12:11:07.774Z,4.08
2018-08-17T12:12:11.530Z,3.45
2018-08-17T12:13:16.866Z,3.60
2018-08-17T12:14:20.652Z,4.37
2018-08-17T12:15:24.038Z,3.52
2018-08-17T12:16:27.468Z,4.35
2018-08-17T12:17:31.424Z,3.40
2018-08-17T12:18:35.084Z,3.60
2018-08-17T12:19:38.959Z,4.12
2018-08-17T12:20:42.334Z,3.42
2018-08-17T12:21:45.893Z,3.35
2018-08-17T12:22:49.513Z,2.80
2018-08-17T12:23:53.223Z,3.33
2018-08-17T12:24:57.138Z,4.22
2018-08-17T12:26:02.494Z,3.95
2018-08-17T12:27:06.522Z,3.62
2018-08-17T12:28:10.407Z,3.60
2018-08-17T12:29:13.931Z,3.40
2018-08-17T12:30:17.905Z,3.52
2018-08-17T12:31:21.739Z,4.00
2018-08-17T12:32:25.659Z,3.75
2018-08-17T12:33:29.080Z,3.70
2018-08-17T12:34:33.250Z,3.85
2018-08-17T12:35:37.016Z,3.65
2018-08-17T12:36:40.660Z,3.65
2018-08-17T12:37:44.441Z,3.47
2018-08-17T12:38:48.176Z,3.77
2018-08-17T12:39:51.704Z,3.87
2018-08-17T12:40:56.498Z,3.42
2018-08-17T12:42:00.002Z,3.70
2018-08-17T12:43:03.696Z,4.08
2018-08-17T12:44:07.685Z,4.00
2018-08-17T12:45:17.214Z,4.05
2018-08-17T12:46:20.750Z,3.80
2018-08-17T12:47:24.608Z,3.60
2018-08-17T12:48:28.807Z,3.35
2018-08-17T12:49:32.652Z,3.80
2018-08-17T12:50:36.175Z,3.50
2018-08-17T12:51:39.708Z,3.62
2018-08-17T12:52:43.399Z,3.70
2018-08-17T12:53:47.186Z,4.12
2018-08-17T12:54:51.227Z,4.12
2018-08-17T12:55:56.794Z,4.60
2018-08-17T12:57:01.900Z,3.70
2018-08-17T12:58:05.552Z,4.40
2018-08-17T12:59:09.238Z,4.15
2018-08-17T13:00:12.905Z,4.28
2018-08-17T13:01:16.700Z,4.42
2018-08-17T13:02:20.553Z,4.30
2018-08-17T13:03:24.435Z,3.98
2018-08-17T13:04:28.433Z,4.47
2018-08-17T13:05:32.089Z,4.08
2018-08-17T13:06:35.868Z,3.75
2018-08-17T13:07:39.664Z,4.65
2018-08-17T13:08:43.298Z,4.42
2018-08-17T13:09:47.598Z,4.08
2018-08-17T13:10:51.438Z,4.30
2018-08-17T13:11:58.928Z,4.90
2018-08-17T13:13:05.311Z,3.98
2018-08-17T13:14:11.418Z,4.72
2018-08-17T13:15:15.119Z,4.60
2018-08-17T13:16:18.675Z,4.55
2018-08-17T13:17:22.551Z,4.28
2018-08-17T13:18:26.285Z,4.70
2018-08-17T13:19:30.203Z,4.25
2018-08-17T13:20:33.802Z,4.20
2018-08-17T13:21:37.350Z,4.10
2018-08-17T13:22:42.714Z,4.30
2018-08-17T13:23:53.977Z,4.30
2018-08-17T13:25:01.418Z,5.35
2018-08-17T13:26:04.990Z,5.37
2018-08-17T13:27:08.922Z,5.22
2018-08-17T13:28:12.927Z,5.60
2018-08-17T13:29:17.146Z,5.37
2018-08-17T13:30:20.667Z,6.22
2018-08-17T13:31:24.439Z,5.03
2018-08-17T13:32:28.259Z,5.50
2018-08-17T13:33:31.860Z,5.92
2018-08-17T13:34:35.520Z,4.95
2018-08-17T13:35:39.451Z,4.70
2018-08-17T13:36:44.339Z,5.20
2018-08-17T13:37:48.841Z,5.33
2018-08-17T13:38:53.188Z,5.67
2018-08-17T13:39:56.963Z,6.08
2018-08-17T13:41:00.684Z,5.80
2018-08-17T13:42:04.437Z,6.33
2018-08-17T13:43:08.214Z,5.75
2018-08-17T13:44:12.797Z,6.25
2018-08-17T13:45:16.591Z,5.20
2018-08-17T13:46:20.434Z,5.05
2018-08-17T13:47:24.796Z,6.83
2018-08-17T13:48:28.604Z,6.03
2018-08-17T13:49:32.133Z,5.12
2018-08-17T13:50:35.864Z,6.12
2018-08-17T13:51:39.579Z,5.78
2018-08-17T13:52:43.376Z,6.05
2018-08-17T13:53:47.209Z,5.33
2018-08-17T13:54:50.978Z,4.90
2018-08-17T13:55:54.620Z,5.47
2018-08-17T13:56:58.162Z,5.17
2018-08-17T13:58:02.046Z,7.42
2018-08-17T13:59:06.091Z,7.33